sensor_id;sensor_type;location;lat;lon;timestamp;P1;durP1;ratioP1;P2;durP2;ratioP2
7529;SDS011;3806;52.270;10.544;2023-08-08T00:00:48;7.57;;;1.52;;
7529;SDS011;3806;52.270;10.544;2023-08-08T00:03:13;3.72;;;2.00;;
7529;SDS011;3806;52.270;10.544;2023-08-08T00:05:39;4.38;;;1.45;;
7529;SDS011;3806;52.270;10.544;2023-08-08T00:08:05;4.70;;;1.70;;
7529;SDS011;3806;52.270;10.544;2023-08-08T00:10:31;3.80;;;1.20;;
7529;SDS011;3806;52.270;10.544;2023-08-08T00:12:56;6.03;;;1.88;;
7529;SDS011;3806;52.270;10.544;2023-08-08T00:15:22;3.17;;;1.35;;
7529;SDS011;3806;52.270;10.544;2023-08-08T00:17:48;2.17;;;1.00;;
7529;SDS011;3806;52.270;10.544;2023-08-08T00:20:13;1.27;;;0.88;;
7529;SDS011;3806;52.270;10.544;2023-08-08T00:22:39;5.03;;;1.60;;
7529;SDS011;3806;52.270;10.544;2023-08-08T00:25:04;1.88;;;1.00;;
7529;SDS011;3806;52.270;10.544;2023-08-08T00:27:30;2.83;;;1.15;;
7529;SDS011;3806;52.270;10.544;2023-08-08T00:29:56;3.28;;;1.40;;
7529;SDS011;3806;52.270;10.544;2023-08-08T00:32:21;4.03;;;1.75;;
7529;SDS011;3806;52.270;10.544;2023-08-08T00:34:47;3.13;;;1.27;;
7529;SDS011;3806;52.270;10.544;2023-08-08T00:37:12;2.33;;;1.45;;
7529;SDS011;3806;52.270;10.544;2023-08-08T00:39:38;3.88;;;1.92;;
7529;SDS011;3806;52.270;10.544;2023-08-08T00:42:04;1.77;;;1.30;;
7529;SDS011;3806;52.270;10.544;2023-08-08T00:44:30;2.53;;;1.63;;
7529;SDS011;3806;52.270;10.544;2023-08-08T00:46:55;4.82;;;1.52;;
7529;SDS011;3806;52.270;10.544;2023-08-08T00:49:21;4.07;;;1.90;;
7529;SDS011;3806;52.270;10.544;2023-08-08T00:51:47;3.10;;;1.70;;
7529;SDS011;3806;52.270;10.544;2023-08-08T00:54:13;2.58;;;1.52;;
7529;SDS011;3806;52.270;10.544;2023-08-08T00:56:39;4.57;;;1.95;;
7529;SDS011;3806;52.270;10.544;2023-08-08T00:59:04;2.28;;;1.23;;
7529;SDS011;3806;52.270;10.544;2023-08-08T01:01:33;2.80;;;1.55;;
7529;SDS011;3806;52.270;10.544;2023-08-08T01:03:59;3.08;;;1.50;;
7529;SDS011;3806;52.270;10.544;2023-08-08T01:06:29;2.22;;;1.40;;
7529;SDS011;3806;52.270;10.544;2023-08-08T01:09:04;2.78;;;1.10;;
7529;SDS011;3806;52.270;10.544;2023-08-08T01:11:36;6.65;;;1.90;;
7529;SDS011;3806;52.270;10.544;2023-08-08T01:14:05;3.47;;;1.48;;
7529;SDS011;3806;52.270;10.544;2023-08-08T01:16:33;3.53;;;1.67;;
7529;SDS011;3806;52.270;10.544;2023-08-08T01:18:59;2.13;;;1.25;;
7529;SDS011;3806;52.270;10.544;2023-08-08T01:21:25;3.55;;;1.42;;
7529;SDS011;3806;52.270;10.544;2023-08-08T01:24:00;2.33;;;1.50;;
7529;SDS011;3806;52.270;10.544;2023-08-08T01:26:46;4.00;;;1.40;;
7529;SDS011;3806;52.270;10.544;2023-08-08T01:29:13;4.97;;;1.77;;
7529;SDS011;3806;52.270;10.544;2023-08-08T01:31:38;3.38;;;1.70;;
7529;SDS011;3806;52.270;10.544;2023-08-08T01:34:04;2.10;;;1.48;;
7529;SDS011;3806;52.270;10.544;2023-08-08T01:36:35;4.25;;;1.55;;
7529;SDS011;3806;52.270;10.544;2023-08-08T01:39:11;5.13;;;1.40;;
7529;SDS011;3806;52.270;10.544;2023-08-08T01:41:41;3.22;;;1.73;;
7529;SDS011;3806;52.270;10.544;2023-08-08T01:44:09;3.30;;;1.52;;
7529;SDS011;3806;52.270;10.544;2023-08-08T01:46:35;3.50;;;1.42;;
7529;SDS011;3806;52.270;10.544;2023-08-08T01:49:03;5.82;;;2.60;;
7529;SDS011;3806;52.270;10.544;2023-08-08T01:51:29;4.43;;;1.65;;
7529;SDS011;3806;52.270;10.544;2023-08-08T01:53:54;2.33;;;1.52;;
7529;SDS011;3806;52.270;10.544;2023-08-08T01:56:20;3.65;;;1.90;;
7529;SDS011;3806;52.270;10.544;2023-08-08T01:58:45;4.63;;;1.85;;
7529;SDS011;3806;52.270;10.544;2023-08-08T02:01:11;3.80;;;1.60;;
7529;SDS011;3806;52.270;10.544;2023-08-08T02:03:36;3.08;;;1.60;;
7529;SDS011;3806;52.270;10.544;2023-08-08T02:06:02;6.50;;;1.80;;
7529;SDS011;3806;52.270;10.544;2023-08-08T02:08:27;3.08;;;1.90;;
7529;SDS011;3806;52.270;10.544;2023-08-08T02:10:53;3.95;;;2.45;;
7529;SDS011;3806;52.270;10.544;2023-08-08T02:13:19;4.85;;;1.50;;
7529;SDS011;3806;52.270;10.544;2023-08-08T02:15:44;3.53;;;1.58;;
7529;SDS011;3806;52.270;10.544;2023-08-08T02:18:10;3.88;;;1.80;;
7529;SDS011;3806;52.270;10.544;2023-08-08T02:20:36;4.07;;;1.80;;
7529;SDS011;3806;52.270;10.544;2023-08-08T02:23:02;2.45;;;1.98;;
7529;SDS011;3806;52.270;10.544;2023-08-08T02:25:28;3.22;;;1.67;;
7529;SDS011;3806;52.270;10.544;2023-08-08T02:27:54;4.65;;;1.75;;
7529;SDS011;3806;52.270;10.544;2023-08-08T02:30:19;7.10;;;2.00;;
7529;SDS011;3806;52.270;10.544;2023-08-08T02:32:45;3.42;;;1.80;;
7529;SDS011;3806;52.270;10.544;2023-08-08T02:35:11;5.00;;;1.73;;
7529;SDS011;3806;52.270;10.544;2023-08-08T02:37:37;3.08;;;1.60;;
7529;SDS011;3806;52.270;10.544;2023-08-08T02:40:02;7.50;;;1.77;;
7529;SDS011;3806;52.270;10.544;2023-08-08T02:42:29;3.97;;;1.73;;
7529;SDS011;3806;52.270;10.544;2023-08-08T02:44:55;4.68;;;1.95;;
7529;SDS011;3806;52.270;10.544;2023-08-08T02:47:20;3.70;;;1.77;;
7529;SDS011;3806;52.270;10.544;2023-08-08T02:49:46;3.85;;;1.75;;
7529;SDS011;3806;52.270;10.544;2023-08-08T02:52:11;4.15;;;2.00;;
7529;SDS011;3806;52.270;10.544;2023-08-08T02:54:37;3.90;;;1.85;;
7529;SDS011;3806;52.270;10.544;2023-08-08T02:57:02;2.50;;;1.45;;
7529;SDS011;3806;52.270;10.544;2023-08-08T02:59:28;4.32;;;1.70;;
7529;SDS011;3806;52.270;10.544;2023-08-08T03:01:54;6.10;;;2.22;;
7529;SDS011;3806;52.270;10.544;2023-08-08T03:04:19;2.83;;;1.63;;
7529;SDS011;3806;52.270;10.544;2023-08-08T03:06:45;4.80;;;1.45;;
7529;SDS011;3806;52.270;10.544;2023-08-08T03:09:10;3.95;;;1.73;;
7529;SDS011;3806;52.270;10.544;2023-08-08T03:11:36;3.67;;;1.63;;
7529;SDS011;3806;52.270;10.544;2023-08-08T03:14:02;5.50;;;1.90;;
7529;SDS011;3806;52.270;10.544;2023-08-08T03:16:28;2.65;;;1.50;;
7529;SDS011;3806;52.270;10.544;2023-08-08T03:18:53;2.72;;;1.52;;
7529;SDS011;3806;52.270;10.544;2023-08-08T03:21:19;5.55;;;1.70;;
7529;SDS011;3806;52.270;10.544;2023-08-08T03:23:45;3.30;;;1.90;;
7529;SDS011;3806;52.270;10.544;2023-08-08T03:26:10;1.98;;;1.65;;
7529;SDS011;3806;52.270;10.544;2023-08-08T03:28:36;3.13;;;1.98;;
7529;SDS011;3806;52.270;10.544;2023-08-08T03:31:01;4.18;;;1.83;;
7529;SDS011;3806;52.270;10.544;2023-08-08T03:33:28;3.33;;;1.77;;
7529;SDS011;3806;52.270;10.544;2023-08-08T03:35:53;2.83;;;1.58;;
7529;SDS011;3806;52.270;10.544;2023-08-08T03:38:19;3.75;;;1.95;;
7529;SDS011;3806;52.270;10.544;2023-08-08T03:40:44;2.13;;;1.65;;
7529;SDS011;3806;52.270;10.544;2023-08-08T03:43:10;2.70;;;1.50;;
7529;SDS011;3806;52.270;10.544;2023-08-08T03:45:35;5.03;;;1.83;;
7529;SDS011;3806;52.270;10.544;2023-08-08T03:48:01;2.92;;;1.95;;
7529;SDS011;3806;52.270;10.544;2023-08-08T03:50:26;3.95;;;2.00;;
7529;SDS011;3806;52.270;10.544;2023-08-08T03:52:52;3.90;;;1.48;;
7529;SDS011;3806;52.270;10.544;2023-08-08T03:55:18;4.15;;;1.83;;
7529;SDS011;3806;52.270;10.544;2023-08-08T03:57:43;2.45;;;1.65;;
7529;SDS011;3806;52.270;10.544;2023-08-08T04:00:09;2.33;;;1.52;;
7529;SDS011;3806;52.270;10.544;2023-08-08T04:02:37;3.30;;;1.92;;
7529;SDS011;3806;52.270;10.544;2023-08-08T04:05:03;2.88;;;1.75;;
7529;SDS011;3806;52.270;10.544;2023-08-08T04:07:29;6.30;;;2.10;;
7529;SDS011;3806;52.270;10.544;2023-08-08T04:09:55;2.95;;;1.77;;
7529;SDS011;3806;52.270;10.544;2023-08-08T04:12:20;3.92;;;2.42;;
7529;SDS011;3806;52.270;10.544;2023-08-08T04:14:46;5.30;;;2.35;;
7529;SDS011;3806;52.270;10.544;2023-08-08T04:17:11;4.43;;;1.88;;
7529;SDS011;3806;52.270;10.544;2023-08-08T04:19:37;3.08;;;2.28;;
7529;SDS011;3806;52.270;10.544;2023-08-08T04:22:03;2.97;;;2.03;;
7529;SDS011;3806;52.270;10.544;2023-08-08T04:24:28;4.03;;;2.17;;
7529;SDS011;3806;52.270;10.544;2023-08-08T04:26:54;3.65;;;1.80;;
7529;SDS011;3806;52.270;10.544;2023-08-08T04:29:19;5.28;;;2.28;;
7529;SDS011;3806;52.270;10.544;2023-08-08T04:31:45;2.40;;;1.67;;
7529;SDS011;3806;52.270;10.544;2023-08-08T04:34:10;3.42;;;1.70;;
7529;SDS011;3806;52.270;10.544;2023-08-08T04:36:36;3.28;;;1.70;;
7529;SDS011;3806;52.270;10.544;2023-08-08T04:39:01;3.55;;;2.20;;
7529;SDS011;3806;52.270;10.544;2023-08-08T04:41:27;5.95;;;1.92;;
7529;SDS011;3806;52.270;10.544;2023-08-08T04:43:52;5.18;;;1.90;;
7529;SDS011;3806;52.270;10.544;2023-08-08T04:46:18;3.65;;;2.00;;
7529;SDS011;3806;52.270;10.544;2023-08-08T04:48:43;2.55;;;1.67;;
7529;SDS011;3806;52.270;10.544;2023-08-08T04:51:09;4.28;;;2.20;;
7529;SDS011;3806;52.270;10.544;2023-08-08T04:53:35;2.83;;;1.55;;
7529;SDS011;3806;52.270;10.544;2023-08-08T04:56:00;2.05;;;1.50;;
7529;SDS011;3806;52.270;10.544;2023-08-08T04:58:26;2.58;;;1.50;;
7529;SDS011;3806;52.270;10.544;2023-08-08T05:00:51;3.00;;;1.55;;
7529;SDS011;3806;52.270;10.544;2023-08-08T05:03:17;3.30;;;2.30;;
7529;SDS011;3806;52.270;10.544;2023-08-08T05:05:43;2.08;;;1.38;;
7529;SDS011;3806;52.270;10.544;2023-08-08T05:08:12;3.95;;;2.00;;
7529;SDS011;3806;52.270;10.544;2023-08-08T05:10:38;4.07;;;1.85;;
7529;SDS011;3806;52.270;10.544;2023-08-08T05:13:04;2.17;;;1.38;;
7529;SDS011;3806;52.270;10.544;2023-08-08T05:15:29;1.88;;;1.20;;
7529;SDS011;3806;52.270;10.544;2023-08-08T05:17:55;3.35;;;1.70;;
7529;SDS011;3806;52.270;10.544;2023-08-08T05:20:21;4.15;;;1.95;;
7529;SDS011;3806;52.270;10.544;2023-08-08T05:22:47;4.20;;;1.88;;
7529;SDS011;3806;52.270;10.544;2023-08-08T05:25:13;3.65;;;2.63;;
7529;SDS011;3806;52.270;10.544;2023-08-08T05:27:39;3.38;;;1.52;;
7529;SDS011;3806;52.270;10.544;2023-08-08T05:30:05;5.90;;;1.95;;
7529;SDS011;3806;52.270;10.544;2023-08-08T05:32:31;3.88;;;1.42;;
7529;SDS011;3806;52.270;10.544;2023-08-08T05:34:56;4.80;;;1.85;;
7529;SDS011;3806;52.270;10.544;2023-08-08T05:37:22;3.50;;;1.80;;
7529;SDS011;3806;52.270;10.544;2023-08-08T05:39:48;2.17;;;1.25;;
7529;SDS011;3806;52.270;10.544;2023-08-08T05:42:14;3.00;;;1.33;;
7529;SDS011;3806;52.270;10.544;2023-08-08T05:44:39;2.38;;;1.52;;
7529;SDS011;3806;52.270;10.544;2023-08-08T05:47:07;6.38;;;2.30;;
7529;SDS011;3806;52.270;10.544;2023-08-08T05:49:33;5.03;;;1.80;;
7529;SDS011;3806;52.270;10.544;2023-08-08T05:51:59;2.60;;;1.60;;
7529;SDS011;3806;52.270;10.544;2023-08-08T05:54:24;2.42;;;1.35;;
7529;SDS011;3806;52.270;10.544;2023-08-08T05:56:50;3.58;;;1.45;;
7529;SDS011;3806;52.270;10.544;2023-08-08T05:59:15;4.53;;;2.05;;
7529;SDS011;3806;52.270;10.544;2023-08-08T06:01:41;2.97;;;1.60;;
7529;SDS011;3806;52.270;10.544;2023-08-08T06:04:06;1.95;;;1.30;;
7529;SDS011;3806;52.270;10.544;2023-08-08T06:06:32;3.33;;;1.98;;
7529;SDS011;3806;52.270;10.544;2023-08-08T06:08:58;2.92;;;1.65;;
7529;SDS011;3806;52.270;10.544;2023-08-08T06:11:23;4.18;;;1.98;;
7529;SDS011;3806;52.270;10.544;2023-08-08T06:13:49;3.75;;;1.50;;
7529;SDS011;3806;52.270;10.544;2023-08-08T06:16:15;2.92;;;1.80;;
7529;SDS011;3806;52.270;10.544;2023-08-08T06:18:40;2.63;;;1.60;;
7529;SDS011;3806;52.270;10.544;2023-08-08T06:21:06;3.03;;;1.80;;
7529;SDS011;3806;52.270;10.544;2023-08-08T06:23:32;2.72;;;1.75;;
7529;SDS011;3806;52.270;10.544;2023-08-08T06:25:57;3.83;;;1.77;;
7529;SDS011;3806;52.270;10.544;2023-08-08T06:28:23;3.03;;;1.65;;
7529;SDS011;3806;52.270;10.544;2023-08-08T06:30:49;2.80;;;1.40;;
7529;SDS011;3806;52.270;10.544;2023-08-08T06:33:14;3.33;;;1.65;;
7529;SDS011;3806;52.270;10.544;2023-08-08T06:35:40;3.80;;;1.80;;
7529;SDS011;3806;52.270;10.544;2023-08-08T06:38:07;2.65;;;1.75;;
7529;SDS011;3806;52.270;10.544;2023-08-08T06:40:33;5.25;;;1.65;;
7529;SDS011;3806;52.270;10.544;2023-08-08T06:42:59;2.08;;;1.33;;
7529;SDS011;3806;52.270;10.544;2023-08-08T06:45:25;3.22;;;2.10;;
7529;SDS011;3806;52.270;10.544;2023-08-08T06:47:50;1.80;;;1.50;;
7529;SDS011;3806;52.270;10.544;2023-08-08T06:50:16;2.63;;;1.52;;
7529;SDS011;3806;52.270;10.544;2023-08-08T06:52:42;3.13;;;1.80;;
7529;SDS011;3806;52.270;10.544;2023-08-08T06:55:08;5.70;;;2.30;;
7529;SDS011;3806;52.270;10.544;2023-08-08T06:57:34;3.10;;;1.63;;
7529;SDS011;3806;52.270;10.544;2023-08-08T07:00:00;6.07;;;2.03;;
7529;SDS011;3806;52.270;10.544;2023-08-08T07:02:26;3.25;;;1.55;;
7529;SDS011;3806;52.270;10.544;2023-08-08T07:04:54;2.67;;;1.48;;
7529;SDS011;3806;52.270;10.544;2023-08-08T07:07:20;3.65;;;1.60;;
7529;SDS011;3806;52.270;10.544;2023-08-08T07:09:45;4.82;;;1.23;;
7529;SDS011;3806;52.270;10.544;2023-08-08T07:12:11;1.52;;;1.33;;
7529;SDS011;3806;52.270;10.544;2023-08-08T07:14:37;3.42;;;1.60;;
7529;SDS011;3806;52.270;10.544;2023-08-08T07:17:02;2.60;;;1.52;;
7529;SDS011;3806;52.270;10.544;2023-08-08T07:19:28;2.78;;;1.50;;
7529;SDS011;3806;52.270;10.544;2023-08-08T07:21:56;5.15;;;1.50;;
7529;SDS011;3806;52.270;10.544;2023-08-08T07:24:22;4.97;;;1.70;;
7529;SDS011;3806;52.270;10.544;2023-08-08T07:26:51;3.08;;;1.52;;
7529;SDS011;3806;52.270;10.544;2023-08-08T07:29:17;1.80;;;1.48;;
7529;SDS011;3806;52.270;10.544;2023-08-08T07:31:42;4.10;;;1.60;;
7529;SDS011;3806;52.270;10.544;2023-08-08T07:34:08;3.10;;;1.55;;
7529;SDS011;3806;52.270;10.544;2023-08-08T07:36:36;3.92;;;1.55;;
7529;SDS011;3806;52.270;10.544;2023-08-08T07:39:05;4.43;;;1.60;;
7529;SDS011;3806;52.270;10.544;2023-08-08T07:41:31;2.30;;;1.55;;
7529;SDS011;3806;52.270;10.544;2023-08-08T07:43:56;3.20;;;1.63;;
7529;SDS011;3806;52.270;10.544;2023-08-08T07:46:22;4.15;;;1.80;;
7529;SDS011;3806;52.270;10.544;2023-08-08T07:48:48;2.17;;;1.58;;
7529;SDS011;3806;52.270;10.544;2023-08-08T07:51:13;3.17;;;1.70;;
7529;SDS011;3806;52.270;10.544;2023-08-08T07:53:39;4.10;;;2.03;;
7529;SDS011;3806;52.270;10.544;2023-08-08T07:56:04;3.20;;;1.65;;
7529;SDS011;3806;52.270;10.544;2023-08-08T07:58:31;3.80;;;2.00;;
7529;SDS011;3806;52.270;10.544;2023-08-08T08:00:57;6.18;;;2.03;;
7529;SDS011;3806;52.270;10.544;2023-08-08T08:03:25;6.53;;;2.03;;
7529;SDS011;3806;52.270;10.544;2023-08-08T08:05:52;3.17;;;2.05;;
7529;SDS011;3806;52.270;10.544;2023-08-08T08:08:17;5.22;;;2.22;;
7529;SDS011;3806;52.270;10.544;2023-08-08T08:10:43;3.40;;;1.95;;
7529;SDS011;3806;52.270;10.544;2023-08-08T08:13:11;2.78;;;1.77;;
7529;SDS011;3806;52.270;10.544;2023-08-08T08:15:37;3.05;;;1.73;;
7529;SDS011;3806;52.270;10.544;2023-08-08T08:18:03;5.95;;;2.42;;
7529;SDS011;3806;52.270;10.544;2023-08-08T08:20:29;3.13;;;2.25;;
7529;SDS011;3806;52.270;10.544;2023-08-08T08:22:54;3.75;;;2.03;;
7529;SDS011;3806;52.270;10.544;2023-08-08T08:25:23;3.83;;;1.70;;
7529;SDS011;3806;52.270;10.544;2023-08-08T08:27:48;3.47;;;2.00;;
7529;SDS011;3806;52.270;10.544;2023-08-08T08:30:14;4.68;;;1.88;;
7529;SDS011;3806;52.270;10.544;2023-08-08T08:32:40;4.55;;;1.80;;
7529;SDS011;3806;52.270;10.544;2023-08-08T08:35:06;4.07;;;1.83;;
7529;SDS011;3806;52.270;10.544;2023-08-08T08:37:33;2.33;;;1.50;;
7529;SDS011;3806;52.270;10.544;2023-08-08T08:39:59;3.05;;;1.85;;
7529;SDS011;3806;52.270;10.544;2023-08-08T08:42:26;5.78;;;2.10;;
7529;SDS011;3806;52.270;10.544;2023-08-08T08:44:53;3.15;;;1.50;;
7529;SDS011;3806;52.270;10.544;2023-08-08T08:47:22;2.85;;;1.73;;
7529;SDS011;3806;52.270;10.544;2023-08-08T08:49:49;3.67;;;1.33;;
7529;SDS011;3806;52.270;10.544;2023-08-08T08:52:16;3.70;;;1.80;;
7529;SDS011;3806;52.270;10.544;2023-08-08T08:54:42;2.53;;;1.35;;
7529;SDS011;3806;52.270;10.544;2023-08-08T08:57:08;2.38;;;1.60;;
7529;SDS011;3806;52.270;10.544;2023-08-08T08:59:34;2.25;;;1.23;;
7529;SDS011;3806;52.270;10.544;2023-08-08T09:02:00;2.70;;;1.20;;
7529;SDS011;3806;52.270;10.544;2023-08-08T09:04:28;2.28;;;1.40;;
7529;SDS011;3806;52.270;10.544;2023-08-08T09:06:55;2.50;;;1.20;;
7529;SDS011;3806;52.270;10.544;2023-08-08T09:09:21;4.50;;;1.50;;
7529;SDS011;3806;52.270;10.544;2023-08-08T09:11:48;2.65;;;1.50;;
7529;SDS011;3806;52.270;10.544;2023-08-08T09:14:18;3.40;;;1.45;;
7529;SDS011;3806;52.270;10.544;2023-08-08T09:16:45;2.10;;;1.60;;
7529;SDS011;3806;52.270;10.544;2023-08-08T09:19:13;2.40;;;1.30;;
7529;SDS011;3806;52.270;10.544;2023-08-08T09:21:39;2.72;;;1.45;;
7529;SDS011;3806;52.270;10.544;2023-08-08T09:24:05;2.40;;;1.10;;
7529;SDS011;3806;52.270;10.544;2023-08-08T09:26:33;3.33;;;1.50;;
7529;SDS011;3806;52.270;10.544;2023-08-08T09:29:02;1.67;;;1.15;;
7529;SDS011;3806;52.270;10.544;2023-08-08T09:31:29;3.33;;;1.55;;
7529;SDS011;3806;52.270;10.544;2023-08-08T09:33:58;3.47;;;1.50;;
7529;SDS011;3806;52.270;10.544;2023-08-08T09:36:25;3.92;;;1.45;;
7529;SDS011;3806;52.270;10.544;2023-08-08T09:38:51;4.07;;;1.55;;
7529;SDS011;3806;52.270;10.544;2023-08-08T09:41:18;2.63;;;1.30;;
7529;SDS011;3806;52.270;10.544;2023-08-08T09:43:48;3.40;;;1.27;;
7529;SDS011;3806;52.270;10.544;2023-08-08T09:46:15;2.80;;;1.42;;
7529;SDS011;3806;52.270;10.544;2023-08-08T09:48:41;2.25;;;1.50;;
7529;SDS011;3806;52.270;10.544;2023-08-08T09:51:08;4.40;;;1.60;;
7529;SDS011;3806;52.270;10.544;2023-08-08T09:53:35;3.83;;;1.50;;
7529;SDS011;3806;52.270;10.544;2023-08-08T09:56:04;2.45;;;1.65;;
7529;SDS011;3806;52.270;10.544;2023-08-08T09:58:30;2.03;;;1.50;;
7529;SDS011;3806;52.270;10.544;2023-08-08T10:00:56;4.53;;;1.90;;
7529;SDS011;3806;52.270;10.544;2023-08-08T10:03:22;3.72;;;2.00;;
7529;SDS011;3806;52.270;10.544;2023-08-08T10:05:48;2.83;;;1.58;;
7529;SDS011;3806;52.270;10.544;2023-08-08T10:08:14;3.75;;;1.98;;
7529;SDS011;3806;52.270;10.544;2023-08-08T10:10:41;3.38;;;1.60;;
7529;SDS011;3806;52.270;10.544;2023-08-08T10:13:10;4.38;;;1.83;;
7529;SDS011;3806;52.270;10.544;2023-08-08T10:15:36;2.28;;;1.35;;
7529;SDS011;3806;52.270;10.544;2023-08-08T10:18:10;3.17;;;2.00;;
7529;SDS011;3806;52.270;10.544;2023-08-08T10:20:38;3.45;;;1.95;;
7529;SDS011;3806;52.270;10.544;2023-08-08T10:23:07;4.55;;;1.67;;
7529;SDS011;3806;52.270;10.544;2023-08-08T10:25:32;3.20;;;1.80;;
7529;SDS011;3806;52.270;10.544;2023-08-08T10:28:03;4.72;;;1.70;;
7529;SDS011;3806;52.270;10.544;2023-08-08T10:30:41;3.88;;;1.67;;
7529;SDS011;3806;52.270;10.544;2023-08-08T10:33:22;3.53;;;2.00;;
7529;SDS011;3806;52.270;10.544;2023-08-08T10:38:25;3.25;;;1.75;;
7529;SDS011;3806;52.270;10.544;2023-08-08T10:41:02;5.63;;;1.98;;
7529;SDS011;3806;52.270;10.544;2023-08-08T10:43:29;4.95;;;1.85;;
7529;SDS011;3806;52.270;10.544;2023-08-08T10:45:58;5.40;;;2.30;;
7529;SDS011;3806;52.270;10.544;2023-08-08T10:48:26;3.25;;;2.05;;
7529;SDS011;3806;52.270;10.544;2023-08-08T10:50:54;3.85;;;1.85;;
7529;SDS011;3806;52.270;10.544;2023-08-08T10:53:29;5.85;;;2.72;;
7529;SDS011;3806;52.270;10.544;2023-08-08T10:55:59;2.85;;;1.92;;
7529;SDS011;3806;52.270;10.544;2023-08-08T10:58:42;4.70;;;2.10;;
7529;SDS011;3806;52.270;10.544;2023-08-08T11:01:14;3.45;;;1.80;;
7529;SDS011;3806;52.270;10.544;2023-08-08T11:03:41;4.20;;;2.00;;
7529;SDS011;3806;52.270;10.544;2023-08-08T11:06:07;5.85;;;2.40;;
7529;SDS011;3806;52.270;10.544;2023-08-08T11:08:34;3.22;;;2.10;;
7529;SDS011;3806;52.270;10.544;2023-08-08T11:11:03;4.25;;;2.40;;
7529;SDS011;3806;52.270;10.544;2023-08-08T11:13:32;3.63;;;1.92;;
7529;SDS011;3806;52.270;10.544;2023-08-08T11:15:58;4.68;;;1.92;;
7529;SDS011;3806;52.270;10.544;2023-08-08T11:18:26;5.88;;;2.95;;
7529;SDS011;3806;52.270;10.544;2023-08-08T11:20:52;3.22;;;1.83;;
7529;SDS011;3806;52.270;10.544;2023-08-08T11:23:24;4.82;;;2.20;;
7529;SDS011;3806;52.270;10.544;2023-08-08T11:25:50;4.50;;;2.00;;
7529;SDS011;3806;52.270;10.544;2023-08-08T11:28:16;3.13;;;1.92;;
7529;SDS011;3806;52.270;10.544;2023-08-08T11:30:42;3.35;;;2.03;;
7529;SDS011;3806;52.270;10.544;2023-08-08T11:33:09;3.00;;;1.80;;
7529;SDS011;3806;52.270;10.544;2023-08-08T11:35:37;2.80;;;1.77;;
7529;SDS011;3806;52.270;10.544;2023-08-08T11:38:13;6.95;;;2.20;;
7529;SDS011;3806;52.270;10.544;2023-08-08T11:40:39;5.75;;;2.33;;
7529;SDS011;3806;52.270;10.544;2023-08-08T11:43:05;5.85;;;2.63;;
7529;SDS011;3806;52.270;10.544;2023-08-08T11:45:31;5.25;;;2.28;;
7529;SDS011;3806;52.270;10.544;2023-08-08T11:47:57;3.28;;;1.98;;
7529;SDS011;3806;52.270;10.544;2023-08-08T11:50:26;6.18;;;2.35;;
7529;SDS011;3806;52.270;10.544;2023-08-08T11:52:53;4.70;;;2.00;;
7529;SDS011;3806;52.270;10.544;2023-08-08T11:55:21;4.55;;;2.28;;
7529;SDS011;3806;52.270;10.544;2023-08-08T11:57:54;4.00;;;2.38;;
7529;SDS011;3806;52.270;10.544;2023-08-08T12:00:21;3.97;;;1.95;;
7529;SDS011;3806;52.270;10.544;2023-08-08T12:02:52;2.72;;;1.67;;
7529;SDS011;3806;52.270;10.544;2023-08-08T12:05:20;2.58;;;1.80;;
7529;SDS011;3806;52.270;10.544;2023-08-08T12:07:48;2.45;;;1.83;;
7529;SDS011;3806;52.270;10.544;2023-08-08T12:10:16;2.40;;;1.58;;
7529;SDS011;3806;52.270;10.544;2023-08-08T12:12:43;3.60;;;1.60;;
7529;SDS011;3806;52.270;10.544;2023-08-08T12:15:09;2.65;;;1.77;;
7529;SDS011;3806;52.270;10.544;2023-08-08T12:17:38;4.43;;;1.30;;
7529;SDS011;3806;52.270;10.544;2023-08-08T12:20:05;3.63;;;1.30;;
7529;SDS011;3806;52.270;10.544;2023-08-08T12:22:32;3.70;;;1.60;;
7529;SDS011;3806;52.270;10.544;2023-08-08T12:24:58;1.52;;;1.20;;
7529;SDS011;3806;52.270;10.544;2023-08-08T12:27:24;1.85;;;1.10;;
7529;SDS011;3806;52.270;10.544;2023-08-08T12:29:52;2.80;;;1.10;;
7529;SDS011;3806;52.270;10.544;2023-08-08T12:32:20;2.08;;;1.15;;
7529;SDS011;3806;52.270;10.544;2023-08-08T12:34:49;2.03;;;1.13;;
7529;SDS011;3806;52.270;10.544;2023-08-08T12:37:15;2.20;;;0.70;;
7529;SDS011;3806;52.270;10.544;2023-08-08T12:39:40;2.08;;;1.00;;
7529;SDS011;3806;52.270;10.544;2023-08-08T12:42:06;2.25;;;1.35;;
7529;SDS011;3806;52.270;10.544;2023-08-08T12:44:31;2.78;;;1.38;;
7529;SDS011;3806;52.270;10.544;2023-08-08T12:46:57;2.65;;;1.58;;
7529;SDS011;3806;52.270;10.544;2023-08-08T12:49:23;2.00;;;1.15;;
7529;SDS011;3806;52.270;10.544;2023-08-08T12:51:49;1.65;;;1.30;;
7529;SDS011;3806;52.270;10.544;2023-08-08T12:54:15;3.67;;;1.60;;
7529;SDS011;3806;52.270;10.544;2023-08-08T12:56:41;3.55;;;1.38;;
7529;SDS011;3806;52.270;10.544;2023-08-08T12:59:06;3.67;;;1.70;;
7529;SDS011;3806;52.270;10.544;2023-08-08T13:01:33;2.80;;;1.10;;
7529;SDS011;3806;52.270;10.544;2023-08-08T13:04:02;2.35;;;1.10;;
7529;SDS011;3806;52.270;10.544;2023-08-08T13:06:28;2.70;;;1.20;;
7529;SDS011;3806;52.270;10.544;2023-08-08T13:08:54;1.95;;;0.95;;
7529;SDS011;3806;52.270;10.544;2023-08-08T13:11:21;1.92;;;1.00;;
7529;SDS011;3806;52.270;10.544;2023-08-08T13:13:46;2.10;;;1.52;;
7529;SDS011;3806;52.270;10.544;2023-08-08T13:16:12;2.47;;;1.00;;
7529;SDS011;3806;52.270;10.544;2023-08-08T13:18:37;0.80;;;0.80;;
7529;SDS011;3806;52.270;10.544;2023-08-08T13:21:03;0.95;;;0.63;;
7529;SDS011;3806;52.270;10.544;2023-08-08T13:23:28;2.95;;;0.88;;
7529;SDS011;3806;52.270;10.544;2023-08-08T13:25:54;3.65;;;0.85;;
7529;SDS011;3806;52.270;10.544;2023-08-08T13:28:20;1.38;;;0.95;;
7529;SDS011;3806;52.270;10.544;2023-08-08T13:30:45;3.53;;;1.10;;
7529;SDS011;3806;52.270;10.544;2023-08-08T13:33:11;0.55;;;0.55;;
7529;SDS011;3806;52.270;10.544;2023-08-08T13:35:36;1.10;;;0.75;;
7529;SDS011;3806;52.270;10.544;2023-08-08T13:38:02;1.40;;;0.90;;
7529;SDS011;3806;52.270;10.544;2023-08-08T13:40:28;1.00;;;0.60;;
7529;SDS011;3806;52.270;10.544;2023-08-08T13:42:53;1.48;;;0.80;;
7529;SDS011;3806;52.270;10.544;2023-08-08T13:45:19;1.10;;;0.70;;
7529;SDS011;3806;52.270;10.544;2023-08-08T13:47:45;2.05;;;0.90;;
7529;SDS011;3806;52.270;10.544;2023-08-08T13:50:12;5.60;;;1.33;;
7529;SDS011;3806;52.270;10.544;2023-08-08T13:52:39;1.58;;;1.00;;
7529;SDS011;3806;52.270;10.544;2023-08-08T13:55:05;1.95;;;0.80;;
7529;SDS011;3806;52.270;10.544;2023-08-08T13:57:32;1.58;;;0.50;;
7529;SDS011;3806;52.270;10.544;2023-08-08T13:59:57;1.05;;;0.50;;
7529;SDS011;3806;52.270;10.544;2023-08-08T14:02:23;1.85;;;0.70;;
7529;SDS011;3806;52.270;10.544;2023-08-08T14:04:48;2.10;;;0.60;;
7529;SDS011;3806;52.270;10.544;2023-08-08T14:07:14;2.08;;;0.80;;
7529;SDS011;3806;52.270;10.544;2023-08-08T14:09:39;0.80;;;0.63;;
7529;SDS011;3806;52.270;10.544;2023-08-08T14:12:05;1.50;;;0.73;;
7529;SDS011;3806;52.270;10.544;2023-08-08T14:14:31;0.47;;;0.47;;
7529;SDS011;3806;52.270;10.544;2023-08-08T14:16:56;1.40;;;0.60;;
7529;SDS011;3806;52.270;10.544;2023-08-08T14:19:22;3.72;;;0.77;;
7529;SDS011;3806;52.270;10.544;2023-08-08T14:21:48;4.80;;;0.55;;
7529;SDS011;3806;52.270;10.544;2023-08-08T14:24:13;4.28;;;1.00;;
7529;SDS011;3806;52.270;10.544;2023-08-08T14:26:39;2.78;;;0.70;;
7529;SDS011;3806;52.270;10.544;2023-08-08T14:29:04;2.38;;;0.80;;
7529;SDS011;3806;52.270;10.544;2023-08-08T14:31:30;0.88;;;0.50;;
7529;SDS011;3806;52.270;10.544;2023-08-08T14:33:56;0.60;;;0.50;;
7529;SDS011;3806;52.270;10.544;2023-08-08T14:36:21;1.15;;;0.57;;
7529;SDS011;3806;52.270;10.544;2023-08-08T14:38:47;1.38;;;0.60;;
7529;SDS011;3806;52.270;10.544;2023-08-08T14:41:12;3.60;;;0.63;;
7529;SDS011;3806;52.270;10.544;2023-08-08T14:43:38;1.55;;;0.77;;
7529;SDS011;3806;52.270;10.544;2023-08-08T14:46:04;1.42;;;1.00;;
7529;SDS011;3806;52.270;10.544;2023-08-08T14:48:30;0.88;;;0.65;;
7529;SDS011;3806;52.270;10.544;2023-08-08T14:50:56;2.83;;;0.80;;
7529;SDS011;3806;52.270;10.544;2023-08-08T14:53:22;1.38;;;0.70;;
7529;SDS011;3806;52.270;10.544;2023-08-08T14:55:47;1.95;;;0.98;;
7529;SDS011;3806;52.270;10.544;2023-08-08T14:58:13;2.33;;;0.75;;